Amboy, California
Current Conditions -  °F | °C
As of 3:56 PM on Friday 21 Nov 2014 (Local Time) from KNXP Reporting Station
Few Clouds Few Clouds  
Wind Chill: 66°   Ceiling: Unl
Heat Index: 66°   Visibility: 10mi
Dew Point: 34°   Wind: 8mph
Humidity: 30%   Direction: 330°NNW
Pressure: 30.01"   Gusts: NA
Location:  34.56°N, 115.75°W
Report Text: KNXP 212356Z 33007KT 10SM FEW070 19/01 A3001 RMK AO2 SLP140 T01890011 10200 20156 53003 $
Loading
Personal Weather Stations






























Interactive Weather Map New forecast layout! Learn more

10-Day Weather Forecast

Advertisements
Track Severe Weather on mobile